sensor_id;sensor_type;location;lat;lon;timestamp;temperature;humidity
67005;HTU21D;53920;51.094;5.902;2023-03-03T00:01:04;2.81;72.71
67005;HTU21D;53920;51.094;5.902;2023-03-03T00:03:31;2.80;72.70
67005;HTU21D;53920;51.094;5.902;2023-03-03T00:05:57;2.76;72.88
67005;HTU21D;53920;51.094;5.902;2023-03-03T00:08:24;2.74;72.93
67005;HTU21D;53920;51.094;5.902;2023-03-03T00:10:50;2.71;73.09
67005;HTU21D;53920;51.094;5.902;2023-03-03T00:13:20;2.68;73.31
67005;HTU21D;53920;51.094;5.902;2023-03-03T00:15:47;2.67;73.37
67005;HTU21D;53920;51.094;5.902;2023-03-03T00:18:34;2.65;73.37
67005;HTU21D;53920;51.094;5.902;2023-03-03T00:21:03;2.64;73.49
67005;HTU21D;53920;51.094;5.902;2023-03-03T00:23:38;2.64;73.43
67005;HTU21D;53920;51.094;5.902;2023-03-03T00:26:21;2.59;73.44
67005;HTU21D;53920;51.094;5.902;2023-03-03T00:28:50;2.58;73.38
67005;HTU21D;53920;51.094;5.902;2023-03-03T00:31:38;2.54;73.51
67005;HTU21D;53920;51.094;5.902;2023-03-03T00:34:24;2.62;73.53
67005;HTU21D;53920;51.094;5.902;2023-03-03T00:36:56;2.74;73.32
67005;HTU21D;53920;51.094;5.902;2023-03-03T00:39:29;2.85;73.37
67005;HTU21D;53920;51.094;5.902;2023-03-03T00:41:57;2.98;73.13
67005;HTU21D;53920;51.094;5.902;2023-03-03T00:44:42;3.14;72.77
67005;HTU21D;53920;51.094;5.902;2023-03-03T00:47:37;3.26;72.40
67005;HTU21D;53920;51.094;5.902;2023-03-03T00:52:40;3.33;72.17
67005;HTU21D;53920;51.094;5.902;2023-03-03T00:55:10;3.40;72.00
67005;HTU21D;53920;51.094;5.902;2023-03-03T00:57:36;3.46;71.69
67005;HTU21D;53920;51.094;5.902;2023-03-03T01:00:04;3.49;71.54
67005;HTU21D;53920;51.094;5.902;2023-03-03T01:02:31;3.54;71.38
67005;HTU21D;53920;51.094;5.902;2023-03-03T01:04:57;3.59;71.09
67005;HTU21D;53920;51.094;5.902;2023-03-03T01:07:23;3.60;71.07
67005;HTU21D;53920;51.094;5.902;2023-03-03T01:09:50;3.65;71.01
67005;HTU21D;53920;51.094;5.902;2023-03-03T01:12:16;3.71;70.68
67005;HTU21D;53920;51.094;5.902;2023-03-03T01:14:42;3.69;70.66
67005;HTU21D;53920;51.094;5.902;2023-03-03T01:17:10;3.71;70.61
67005;HTU21D;53920;51.094;5.902;2023-03-03T01:19:36;3.71;70.55
67005;HTU21D;53920;51.094;5.902;2023-03-03T01:22:01;3.75;70.38
67005;HTU21D;53920;51.094;5.902;2023-03-03T01:24:27;3.83;70.16
67005;HTU21D;53920;51.094;5.902;2023-03-03T01:26:53;3.86;69.86
67005;HTU21D;53920;51.094;5.902;2023-03-03T01:29:19;3.83;69.87
67005;HTU21D;53920;51.094;5.902;2023-03-03T01:31:46;3.86;69.74
67005;HTU21D;53920;51.094;5.902;2023-03-03T01:34:12;3.90;69.58
67005;HTU21D;53920;51.094;5.902;2023-03-03T01:36:38;3.89;69.33
67005;HTU21D;53920;51.094;5.902;2023-03-03T01:39:04;3.91;69.19
67005;HTU21D;53920;51.094;5.902;2023-03-03T01:41:30;3.88;69.13
67005;HTU21D;53920;51.094;5.902;2023-03-03T01:44:00;3.85;69.08
67005;HTU21D;53920;51.094;5.902;2023-03-03T01:49:10;3.83;69.23
67005;HTU21D;53920;51.094;5.902;2023-03-03T01:51:49;3.84;69.16
67005;HTU21D;53920;51.094;5.902;2023-03-03T01:54:32;3.84;68.97
67005;HTU21D;53920;51.094;5.902;2023-03-03T01:57:05;3.84;69.11
67005;HTU21D;53920;51.094;5.902;2023-03-03T01:59:41;3.88;68.94
67005;HTU21D;53920;51.094;5.902;2023-03-03T02:02:09;3.90;68.97
67005;HTU21D;53920;51.094;5.902;2023-03-03T02:04:36;3.93;69.05
67005;HTU21D;53920;51.094;5.902;2023-03-03T02:07:06;3.99;69.02
67005;HTU21D;53920;51.094;5.902;2023-03-03T02:09:51;4.02;68.74
67005;HTU21D;53920;51.094;5.902;2023-03-03T02:12:21;3.97;68.68
67005;HTU21D;53920;51.094;5.902;2023-03-03T02:14:50;3.91;68.71
67005;HTU21D;53920;51.094;5.902;2023-03-03T02:17:17;3.92;68.84
67005;HTU21D;53920;51.094;5.902;2023-03-03T02:22:33;3.89;68.94
67005;HTU21D;53920;51.094;5.902;2023-03-03T02:25:02;3.89;68.81
67005;HTU21D;53920;51.094;5.902;2023-03-03T02:27:31;3.92;68.70
67005;HTU21D;53920;51.094;5.902;2023-03-03T02:30:07;3.92;68.58
67005;HTU21D;53920;51.094;5.902;2023-03-03T02:32:34;3.93;68.63
67005;HTU21D;53920;51.094;5.902;2023-03-03T02:34:59;3.93;68.64
67005;HTU21D;53920;51.094;5.902;2023-03-03T02:37:26;3.97;68.54
67005;HTU21D;53920;51.094;5.902;2023-03-03T02:39:53;4.02;68.34
67005;HTU21D;53920;51.094;5.902;2023-03-03T02:42:28;4.06;68.10
67005;HTU21D;53920;51.094;5.902;2023-03-03T02:44:56;4.06;68.06
67005;HTU21D;53920;51.094;5.902;2023-03-03T02:47:22;4.01;68.14
67005;HTU21D;53920;51.094;5.902;2023-03-03T02:49:48;3.94;68.34
67005;HTU21D;53920;51.094;5.902;2023-03-03T02:52:14;3.92;68.30
67005;HTU21D;53920;51.094;5.902;2023-03-03T02:54:44;3.88;68.49
67005;HTU21D;53920;51.094;5.902;2023-03-03T02:57:10;3.88;68.52
67005;HTU21D;53920;51.094;5.902;2023-03-03T02:59:36;3.94;68.36
67005;HTU21D;53920;51.094;5.902;2023-03-03T03:02:15;3.97;68.40
67005;HTU21D;53920;51.094;5.902;2023-03-03T03:04:41;3.94;68.52
67005;HTU21D;53920;51.094;5.902;2023-03-03T03:07:09;3.95;68.37
67005;HTU21D;53920;51.094;5.902;2023-03-03T03:09:37;3.92;68.36
67005;HTU21D;53920;51.094;5.902;2023-03-03T03:12:03;3.92;68.42
67005;HTU21D;53920;51.094;5.902;2023-03-03T03:14:32;3.94;68.41
67005;HTU21D;53920;51.094;5.902;2023-03-03T03:16:58;3.98;68.31
67005;HTU21D;53920;51.094;5.902;2023-03-03T03:19:26;3.99;68.36
67005;HTU21D;53920;51.094;5.902;2023-03-03T03:21:53;3.99;68.36
67005;HTU21D;53920;51.094;5.902;2023-03-03T03:24:20;4.00;68.35
67005;HTU21D;53920;51.094;5.902;2023-03-03T03:26:52;3.92;68.49
67005;HTU21D;53920;51.094;5.902;2023-03-03T03:29:19;3.90;68.73
67005;HTU21D;53920;51.094;5.902;2023-03-03T03:31:45;3.94;68.58
67005;HTU21D;53920;51.094;5.902;2023-03-03T03:34:11;3.89;68.49
67005;HTU21D;53920;51.094;5.902;2023-03-03T03:36:37;3.88;68.63
67005;HTU21D;53920;51.094;5.902;2023-03-03T03:39:04;3.92;68.56
67005;HTU21D;53920;51.094;5.902;2023-03-03T03:41:32;3.92;68.58
67005;HTU21D;53920;51.094;5.902;2023-03-03T03:43:58;3.93;68.52
67005;HTU21D;53920;51.094;5.902;2023-03-03T03:46:24;3.90;68.55
67005;HTU21D;53920;51.094;5.902;2023-03-03T03:48:50;3.87;68.62
67005;HTU21D;53920;51.094;5.902;2023-03-03T03:51:18;3.87;68.59
67005;HTU21D;53920;51.094;5.902;2023-03-03T03:53:44;3.76;68.68
67005;HTU21D;53920;51.094;5.902;2023-03-03T03:56:10;3.76;68.89
67005;HTU21D;53920;51.094;5.902;2023-03-03T03:58:36;3.82;68.82
67005;HTU21D;53920;51.094;5.902;2023-03-03T04:01:08;3.73;68.91
67005;HTU21D;53920;51.094;5.902;2023-03-03T04:03:38;3.72;69.04
67005;HTU21D;53920;51.094;5.902;2023-03-03T04:06:08;3.74;69.00
67005;HTU21D;53920;51.094;5.902;2023-03-03T04:08:34;3.82;68.95
67005;HTU21D;53920;51.094;5.902;2023-03-03T04:11:00;3.85;68.82
67005;HTU21D;53920;51.094;5.902;2023-03-03T04:13:26;3.89;68.59
67005;HTU21D;53920;51.094;5.902;2023-03-03T04:15:56;3.86;68.44
67005;HTU21D;53920;51.094;5.902;2023-03-03T04:18:22;3.82;68.64
67005;HTU21D;53920;51.094;5.902;2023-03-03T04:20:49;3.80;68.68
67005;HTU21D;53920;51.094;5.902;2023-03-03T04:23:17;3.80;68.72
67005;HTU21D;53920;51.094;5.902;2023-03-03T04:25:48;3.76;68.66
67005;HTU21D;53920;51.094;5.902;2023-03-03T04:28:15;3.76;68.78
67005;HTU21D;53920;51.094;5.902;2023-03-03T04:30:42;3.74;68.97
67005;HTU21D;53920;51.094;5.902;2023-03-03T04:33:09;3.75;68.69
67005;HTU21D;53920;51.094;5.902;2023-03-03T04:35:37;3.70;68.83
67005;HTU21D;53920;51.094;5.902;2023-03-03T04:38:03;3.75;68.93
67005;HTU21D;53920;51.094;5.902;2023-03-03T04:40:31;3.80;68.75
67005;HTU21D;53920;51.094;5.902;2023-03-03T04:42:59;3.83;68.75
67005;HTU21D;53920;51.094;5.902;2023-03-03T04:45:25;3.83;68.96
67005;HTU21D;53920;51.094;5.902;2023-03-03T04:47:51;3.87;68.75
67005;HTU21D;53920;51.094;5.902;2023-03-03T04:50:17;3.87;68.80
67005;HTU21D;53920;51.094;5.902;2023-03-03T04:52:43;3.88;68.79
67005;HTU21D;53920;51.094;5.902;2023-03-03T04:55:10;3.86;68.69
67005;HTU21D;53920;51.094;5.902;2023-03-03T04:57:36;3.78;68.70
67005;HTU21D;53920;51.094;5.902;2023-03-03T05:00:03;3.77;68.71
67005;HTU21D;53920;51.094;5.902;2023-03-03T05:02:31;3.72;69.03
67005;HTU21D;53920;51.094;5.902;2023-03-03T05:04:57;3.76;68.91
67005;HTU21D;53920;51.094;5.902;2023-03-03T05:07:23;3.85;68.79
67005;HTU21D;53920;51.094;5.902;2023-03-03T05:09:49;3.90;68.52
67005;HTU21D;53920;51.094;5.902;2023-03-03T05:12:15;3.89;68.54
67005;HTU21D;53920;51.094;5.902;2023-03-03T05:14:41;3.89;68.46
67005;HTU21D;53920;51.094;5.902;2023-03-03T05:17:07;3.86;68.58
67005;HTU21D;53920;51.094;5.902;2023-03-03T05:19:33;3.86;68.71
67005;HTU21D;53920;51.094;5.902;2023-03-03T05:22:00;3.89;68.67
67005;HTU21D;53920;51.094;5.902;2023-03-03T05:24:26;3.93;68.44
67005;HTU21D;53920;51.094;5.902;2023-03-03T05:26:52;3.87;68.30
67005;HTU21D;53920;51.094;5.902;2023-03-03T05:29:18;3.83;68.41
67005;HTU21D;53920;51.094;5.902;2023-03-03T05:31:44;3.83;68.47
67005;HTU21D;53920;51.094;5.902;2023-03-03T05:34:10;3.86;68.50
67005;HTU21D;53920;51.094;5.902;2023-03-03T05:36:36;3.89;68.28
67005;HTU21D;53920;51.094;5.902;2023-03-03T05:39:02;3.82;68.35
67005;HTU21D;53920;51.094;5.902;2023-03-03T05:41:28;3.77;68.56
67005;HTU21D;53920;51.094;5.902;2023-03-03T05:43:54;3.80;68.49
67005;HTU21D;53920;51.094;5.902;2023-03-03T05:46:20;3.85;68.44
67005;HTU21D;53920;51.094;5.902;2023-03-03T05:48:46;3.88;68.30
67005;HTU21D;53920;51.094;5.902;2023-03-03T05:51:12;3.83;68.00
67005;HTU21D;53920;51.094;5.902;2023-03-03T05:53:39;3.72;68.39
67005;HTU21D;53920;51.094;5.902;2023-03-03T05:56:05;3.70;68.39
67005;HTU21D;53920;51.094;5.902;2023-03-03T05:58:31;3.68;68.42
67005;HTU21D;53920;51.094;5.902;2023-03-03T06:00:57;3.67;68.36
67005;HTU21D;53920;51.094;5.902;2023-03-03T06:03:23;3.68;68.32
67005;HTU21D;53920;51.094;5.902;2023-03-03T06:05:49;3.68;68.49
67005;HTU21D;53920;51.094;5.902;2023-03-03T06:08:15;3.65;68.43
67005;HTU21D;53920;51.094;5.902;2023-03-03T06:10:41;3.63;68.50
67005;HTU21D;53920;51.094;5.902;2023-03-03T06:13:09;3.63;68.57
67005;HTU21D;53920;51.094;5.902;2023-03-03T06:15:35;3.61;68.60
67005;HTU21D;53920;51.094;5.902;2023-03-03T06:18:01;3.60;68.78
67005;HTU21D;53920;51.094;5.902;2023-03-03T06:20:27;3.58;68.81
67005;HTU21D;53920;51.094;5.902;2023-03-03T06:22:52;3.60;68.89
67005;HTU21D;53920;51.094;5.902;2023-03-03T06:25:18;3.64;68.79
67005;HTU21D;53920;51.094;5.902;2023-03-03T06:27:44;3.65;68.81
67005;HTU21D;53920;51.094;5.902;2023-03-03T06:30:10;3.63;68.72
67005;HTU21D;53920;51.094;5.902;2023-03-03T06:32:37;3.65;68.65
67005;HTU21D;53920;51.094;5.902;2023-03-03T06:35:04;3.59;68.71
67005;HTU21D;53920;51.094;5.902;2023-03-03T06:37:30;3.57;68.96
67005;HTU21D;53920;51.094;5.902;2023-03-03T06:39:56;3.61;68.83
67005;HTU21D;53920;51.094;5.902;2023-03-03T06:42:22;3.64;68.66
67005;HTU21D;53920;51.094;5.902;2023-03-03T06:44:49;3.62;68.79
67005;HTU21D;53920;51.094;5.902;2023-03-03T06:47:15;3.63;68.65
67005;HTU21D;53920;51.094;5.902;2023-03-03T06:49:41;3.59;68.75
67005;HTU21D;53920;51.094;5.902;2023-03-03T06:52:14;3.59;68.68
67005;HTU21D;53920;51.094;5.902;2023-03-03T06:54:43;3.58;68.80
67005;HTU21D;53920;51.094;5.902;2023-03-03T06:57:32;3.59;68.63
67005;HTU21D;53920;51.094;5.902;2023-03-03T07:00:15;3.69;68.55
67005;HTU21D;53920;51.094;5.902;2023-03-03T07:02:41;3.62;68.55
67005;HTU21D;53920;51.094;5.902;2023-03-03T07:05:16;3.59;68.85
67005;HTU21D;53920;51.094;5.902;2023-03-03T07:07:43;3.62;68.87
67005;HTU21D;53920;51.094;5.902;2023-03-03T07:10:26;3.69;68.77
67005;HTU21D;53920;51.094;5.902;2023-03-03T07:12:55;3.74;68.49
67005;HTU21D;53920;51.094;5.902;2023-03-03T07:15:29;3.73;68.37
67005;HTU21D;53920;51.094;5.902;2023-03-03T07:17:58;3.73;68.33
67005;HTU21D;53920;51.094;5.902;2023-03-03T07:20:40;3.64;68.29
67005;HTU21D;53920;51.094;5.902;2023-03-03T07:23:22;3.65;68.31
67005;HTU21D;53920;51.094;5.902;2023-03-03T07:25:49;3.70;68.17
67005;HTU21D;53920;51.094;5.902;2023-03-03T07:28:51;3.71;67.84
67005;HTU21D;53920;51.094;5.902;2023-03-03T07:31:39;3.71;67.92
67005;HTU21D;53920;51.094;5.902;2023-03-03T07:37:01;3.71;67.84
67005;HTU21D;53920;51.094;5.902;2023-03-03T07:39:38;3.74;67.78
67005;HTU21D;53920;51.094;5.902;2023-03-03T07:45:33;3.80;67.44
67005;HTU21D;53920;51.094;5.902;2023-03-03T07:50:39;3.93;67.27
67005;HTU21D;53920;51.094;5.902;2023-03-03T07:53:21;4.01;66.93
67005;HTU21D;53920;51.094;5.902;2023-03-03T07:55:48;4.05;66.84
67005;HTU21D;53920;51.094;5.902;2023-03-03T07:58:24;4.09;66.69
67005;HTU21D;53920;51.094;5.902;2023-03-03T08:03:49;4.13;66.53
67005;HTU21D;53920;51.094;5.902;2023-03-03T08:06:52;4.16;66.36
67005;HTU21D;53920;51.094;5.902;2023-03-03T08:11:50;4.15;66.14
67005;HTU21D;53920;51.094;5.902;2023-03-03T08:14:30;4.16;66.01
67005;HTU21D;53920;51.094;5.902;2023-03-03T08:16:59;4.20;65.91
67005;HTU21D;53920;51.094;5.902;2023-03-03T08:19:25;4.27;65.81
67005;HTU21D;53920;51.094;5.902;2023-03-03T08:22:22;4.19;65.64
67005;HTU21D;53920;51.094;5.902;2023-03-03T08:24:44;4.20;65.58
67005;HTU21D;53920;51.094;5.902;2023-03-03T08:27:10;4.22;65.59
67005;HTU21D;53920;51.094;5.902;2023-03-03T08:29:36;4.24;65.30
67005;HTU21D;53920;51.094;5.902;2023-03-03T08:32:02;4.35;65.21
67005;HTU21D;53920;51.094;5.902;2023-03-03T08:34:28;4.47;64.82
67005;HTU21D;53920;51.094;5.902;2023-03-03T08:36:54;4.54;64.71
67005;HTU21D;53920;51.094;5.902;2023-03-03T08:39:23;4.61;64.28
67005;HTU21D;53920;51.094;5.902;2023-03-03T08:41:49;4.61;64.08
67005;HTU21D;53920;51.094;5.902;2023-03-03T08:44:15;4.62;64.03
67005;HTU21D;53920;51.094;5.902;2023-03-03T08:46:41;4.71;63.89
67005;HTU21D;53920;51.094;5.902;2023-03-03T08:49:08;4.73;63.89
67005;HTU21D;53920;51.094;5.902;2023-03-03T08:51:35;4.76;63.84
67005;HTU21D;53920;51.094;5.902;2023-03-03T08:54:00;4.79;63.72
67005;HTU21D;53920;51.094;5.902;2023-03-03T08:56:26;4.87;63.46
67005;HTU21D;53920;51.094;5.902;2023-03-03T08:58:52;4.97;63.21
67005;HTU21D;53920;51.094;5.902;2023-03-03T09:01:18;5.04;62.92
67005;HTU21D;53920;51.094;5.902;2023-03-03T09:03:44;5.05;62.82
67005;HTU21D;53920;51.094;5.902;2023-03-03T09:06:10;5.15;62.76
67005;HTU21D;53920;51.094;5.902;2023-03-03T09:08:37;5.20;62.57
67005;HTU21D;53920;51.094;5.902;2023-03-03T09:11:10;5.22;62.54
67005;HTU21D;53920;51.094;5.902;2023-03-03T09:13:36;5.25;62.28
67005;HTU21D;53920;51.094;5.902;2023-03-03T09:16:14;5.25;62.12
67005;HTU21D;53920;51.094;5.902;2023-03-03T09:18:40;5.26;61.91
67005;HTU21D;53920;51.094;5.902;2023-03-03T09:21:21;5.33;61.90
67005;HTU21D;53920;51.094;5.902;2023-03-03T09:23:53;5.45;61.40
67005;HTU21D;53920;51.094;5.902;2023-03-03T09:26:45;5.55;61.12
67005;HTU21D;53920;51.094;5.902;2023-03-03T09:31:44;5.77;60.62
67005;HTU21D;53920;51.094;5.902;2023-03-03T09:37:21;5.81;60.22
67005;HTU21D;53920;51.094;5.902;2023-03-03T09:39:55;5.81;59.83
67005;HTU21D;53920;51.094;5.902;2023-03-03T09:48:08;5.89;59.95
67005;HTU21D;53920;51.094;5.902;2023-03-03T09:50:58;5.95;59.77
67005;HTU21D;53920;51.094;5.902;2023-03-03T10:06:40;6.14;59.29
67005;HTU21D;53920;51.094;5.902;2023-03-03T10:15:20;6.23;59.29
67005;HTU21D;53920;51.094;5.902;2023-03-03T10:24:25;6.55;58.31
67005;HTU21D;53920;51.094;5.902;2023-03-03T10:30:32;6.52;58.33
67005;HTU21D;53920;51.094;5.902;2023-03-03T10:33:06;6.56;58.27
67005;HTU21D;53920;51.094;5.902;2023-03-03T10:41:38;6.71;58.18
67005;HTU21D;53920;51.094;5.902;2023-03-03T10:52:32;6.79;58.00
67005;HTU21D;53920;51.094;5.902;2023-03-03T10:55:15;6.79;57.96
67005;HTU21D;53920;51.094;5.902;2023-03-03T11:03:49;7.05;57.08
67005;HTU21D;53920;51.094;5.902;2023-03-03T11:14:42;7.22;56.61
67005;HTU21D;53920;51.094;5.902;2023-03-03T11:20:07;7.30;56.40
67005;HTU21D;53920;51.094;5.902;2023-03-03T11:25:32;7.30;56.32
67005;HTU21D;53920;51.094;5.902;2023-03-03T11:37:09;7.56;55.79
67005;HTU21D;53920;51.094;5.902;2023-03-03T11:39:39;7.56;55.60
67005;HTU21D;53920;51.094;5.902;2023-03-03T11:42:18;7.60;55.09
67005;HTU21D;53920;51.094;5.902;2023-03-03T11:45:17;7.57;55.23
67005;HTU21D;53920;51.094;5.902;2023-03-03T11:48:13;7.52;55.52
67005;HTU21D;53920;51.094;5.902;2023-03-03T11:50:57;7.50;55.55
67005;HTU21D;53920;51.094;5.902;2023-03-03T11:56:23;7.64;55.45
67005;HTU21D;53920;51.094;5.902;2023-03-03T11:59:06;7.68;55.29
67005;HTU21D;53920;51.094;5.902;2023-03-03T12:01:56;7.68;55.21
67005;HTU21D;53920;51.094;5.902;2023-03-03T12:04:34;7.68;55.03
67005;HTU21D;53920;51.094;5.902;2023-03-03T12:07:12;7.74;54.96
67005;HTU21D;53920;51.094;5.902;2023-03-03T12:12:44;7.83;54.94
67005;HTU21D;53920;51.094;5.902;2023-03-03T12:28:54;7.91;54.53
67005;HTU21D;53920;51.094;5.902;2023-03-03T12:31:33;7.91;54.04
67005;HTU21D;53920;51.094;5.902;2023-03-03T12:48:23;7.96;54.53
67005;HTU21D;53920;51.094;5.902;2023-03-03T12:56:47;8.04;54.31
67005;HTU21D;53920;51.094;5.902;2023-03-03T12:59:24;8.05;54.52
67005;HTU21D;53920;51.094;5.902;2023-03-03T13:01:58;8.17;54.27
67005;HTU21D;53920;51.094;5.902;2023-03-03T13:04:43;8.21;54.07
67005;HTU21D;53920;51.094;5.902;2023-03-03T13:10:01;8.29;53.67
67005;HTU21D;53920;51.094;5.902;2023-03-03T13:12:31;8.33;53.19
67005;HTU21D;53920;51.094;5.902;2023-03-03T13:28:40;8.73;52.19
67005;HTU21D;53920;51.094;5.902;2023-03-03T13:31:18;8.76;52.22
67005;HTU21D;53920;51.094;5.902;2023-03-03T13:33:54;8.82;52.45
67005;HTU21D;53920;51.094;5.902;2023-03-03T13:36:27;8.89;52.24
67005;HTU21D;53920;51.094;5.902;2023-03-03T13:39:19;9.02;51.72
67005;HTU21D;53920;51.094;5.902;2023-03-03T13:42:02;9.07;51.28
67005;HTU21D;53920;51.094;5.902;2023-03-03T13:44:40;9.14;51.19
67005;HTU21D;53920;51.094;5.902;2023-03-03T13:52:18;9.88;49.61
67005;HTU21D;53920;51.094;5.902;2023-03-03T14:05:44;10.15;49.31
67005;HTU21D;53920;51.094;5.902;2023-03-03T14:11:22;11.05;47.33
67005;HTU21D;53920;51.094;5.902;2023-03-03T14:16:51;12.56;43.97
67005;HTU21D;53920;51.094;5.902;2023-03-03T14:19:33;13.16;42.13
67005;HTU21D;53920;51.094;5.902;2023-03-03T14:25:04;13.58;40.23
67005;HTU21D;53920;51.094;5.902;2023-03-03T14:32:59;12.75;41.68
67005;HTU21D;53920;51.094;5.902;2023-03-03T14:35:32;12.34;42.59
67005;HTU21D;53920;51.094;5.902;2023-03-03T14:38:22;12.17;43.07
67005;HTU21D;53920;51.094;5.902;2023-03-03T14:43:43;12.08;43.37
67005;HTU21D;53920;51.094;5.902;2023-03-03T14:46:37;12.00;43.23
67005;HTU21D;53920;51.094;5.902;2023-03-03T14:49:29;11.63;43.63
67005;HTU21D;53920;51.094;5.902;2023-03-03T14:52:17;11.23;44.41
67005;HTU21D;53920;51.094;5.902;2023-03-03T14:54:47;10.87;45.43
67005;HTU21D;53920;51.094;5.902;2023-03-03T15:05:30;9.60;48.66
67005;HTU21D;53920;51.094;5.902;2023-03-03T15:08:09;9.38;49.61
67005;HTU21D;53920;51.094;5.902;2023-03-03T15:10:42;9.24;50.29
67005;HTU21D;53920;51.094;5.902;2023-03-03T15:18:22;8.82;51.64
67005;HTU21D;53920;51.094;5.902;2023-03-03T15:21:04;8.62;52.37
67005;HTU21D;53920;51.094;5.902;2023-03-03T15:23:41;8.53;53.02
67005;HTU21D;53920;51.094;5.902;2023-03-03T15:40:39;7.62;55.61
67005;HTU21D;53920;51.094;5.902;2023-03-03T15:43:37;7.59;55.76
67005;HTU21D;53920;51.094;5.902;2023-03-03T15:51:43;7.40;56.35
67005;HTU21D;53920;51.094;5.902;2023-03-03T16:02:59;7.20;56.82
67005;HTU21D;53920;51.094;5.902;2023-03-03T16:05:38;7.10;57.39
67005;HTU21D;53920;51.094;5.902;2023-03-03T16:08:25;7.07;57.55
67005;HTU21D;53920;51.094;5.902;2023-03-03T16:11:03;7.04;57.63
67005;HTU21D;53920;51.094;5.902;2023-03-03T16:30:09;6.72;58.87
67005;HTU21D;53920;51.094;5.902;2023-03-03T16:32:46;6.68;59.19
67005;HTU21D;53920;51.094;5.902;2023-03-03T16:35:32;6.63;59.61
67005;HTU21D;53920;51.094;5.902;2023-03-03T16:38:07;6.57;59.87
67005;HTU21D;53920;51.094;5.902;2023-03-03T16:40:46;6.51;60.02
67005;HTU21D;53920;51.094;5.902;2023-03-03T16:51:48;6.24;60.93
67005;HTU21D;53920;51.094;5.902;2023-03-03T16:54:50;6.15;61.15
67005;HTU21D;53920;51.094;5.902;2023-03-03T17:00:22;5.96;61.99
67005;HTU21D;53920;51.094;5.902;2023-03-03T17:05:53;5.77;62.72
67005;HTU21D;53920;51.094;5.902;2023-03-03T17:16:13;5.43;63.69
67005;HTU21D;53920;51.094;5.902;2023-03-03T17:24:22;5.18;64.54
67005;HTU21D;53920;51.094;5.902;2023-03-03T17:26:58;5.12;64.66
67005;HTU21D;53920;51.094;5.902;2023-03-03T17:29:45;5.00;65.01
67005;HTU21D;53920;51.094;5.902;2023-03-03T17:37:56;4.80;65.63
67005;HTU21D;53920;51.094;5.902;2023-03-03T17:40:48;4.71;65.85
67005;HTU21D;53920;51.094;5.902;2023-03-03T17:43:28;4.66;65.98
67005;HTU21D;53920;51.094;5.902;2023-03-03T17:46:01;4.59;66.12
67005;HTU21D;53920;51.094;5.902;2023-03-03T17:52:07;4.48;66.56
67005;HTU21D;53920;51.094;5.902;2023-03-03T18:14:38;4.36;66.91
67005;HTU21D;53920;51.094;5.902;2023-03-03T18:20:07;4.39;66.79
67005;HTU21D;53920;51.094;5.902;2023-03-03T18:22:47;4.44;66.75
67005;HTU21D;53920;51.094;5.902;2023-03-03T18:30:27;4.50;66.62
67005;HTU21D;53920;51.094;5.902;2023-03-03T18:35:33;4.51;66.46
67005;HTU21D;53920;51.094;5.902;2023-03-03T18:49:03;4.67;66.12
67005;HTU21D;53920;51.094;5.902;2023-03-03T18:56:46;4.75;65.89
67005;HTU21D;53920;51.094;5.902;2023-03-03T19:04:44;4.94;65.48
67005;HTU21D;53920;51.094;5.902;2023-03-03T19:10:52;4.91;65.62
67005;HTU21D;53920;51.094;5.902;2023-03-03T19:12:53;4.93;65.62
67005;HTU21D;53920;51.094;5.902;2023-03-03T19:20:40;5.15;64.88
67005;HTU21D;53920;51.094;5.902;2023-03-03T19:46:49;5.46;63.94
67005;HTU21D;53920;51.094;5.902;2023-03-03T19:52:26;5.52;64.05
67005;HTU21D;53920;51.094;5.902;2023-03-03T19:58:18;5.54;63.78
67005;HTU21D;53920;51.094;5.902;2023-03-03T20:09:02;5.49;63.99
67005;HTU21D;53920;51.094;5.902;2023-03-03T20:14:39;5.50;63.84
67005;HTU21D;53920;51.094;5.902;2023-03-03T20:34:47;5.61;63.66
67005;HTU21D;53920;51.094;5.902;2023-03-03T20:51:41;5.65;64.04
67005;HTU21D;53920;51.094;5.902;2023-03-03T20:54:11;5.64;64.04
67005;HTU21D;53920;51.094;5.902;2023-03-03T20:56:53;5.57;64.27
67005;HTU21D;53920;51.094;5.902;2023-03-03T20:59:36;5.57;64.39
67005;HTU21D;53920;51.094;5.902;2023-03-03T21:02:29;5.55;64.26
67005;HTU21D;53920;51.094;5.902;2023-03-03T21:05:13;5.51;64.23
67005;HTU21D;53920;51.094;5.902;2023-03-03T21:10:21;5.64;64.09
67005;HTU21D;53920;51.094;5.902;2023-03-03T21:12:51;5.66;64.05
67005;HTU21D;53920;51.094;5.902;2023-03-03T21:17:50;5.76;63.73
67005;HTU21D;53920;51.094;5.902;2023-03-03T21:20:34;5.83;63.52
67005;HTU21D;53920;51.094;5.902;2023-03-03T21:23:01;5.89;63.44
67005;HTU21D;53920;51.094;5.902;2023-03-03T21:28:32;5.95;63.21
67005;HTU21D;53920;51.094;5.902;2023-03-03T21:31:14;5.94;63.07
67005;HTU21D;53920;51.094;5.902;2023-03-03T21:33:56;5.86;63.23
67005;HTU21D;53920;51.094;5.902;2023-03-03T21:38:57;5.84;63.50
67005;HTU21D;53920;51.094;5.902;2023-03-03T21:41:23;5.91;63.42
67005;HTU21D;53920;51.094;5.902;2023-03-03T21:43:53;5.92;63.37
67005;HTU21D;53920;51.094;5.902;2023-03-03T21:46:23;5.93;63.34
67005;HTU21D;53920;51.094;5.902;2023-03-03T21:48:51;5.97;63.28
67005;HTU21D;53920;51.094;5.902;2023-03-03T21:51:18;6.00;63.21
67005;HTU21D;53920;51.094;5.902;2023-03-03T21:53:46;6.00;63.33
67005;HTU21D;53920;51.094;5.902;2023-03-03T21:56:12;6.00;63.26
67005;HTU21D;53920;51.094;5.902;2023-03-03T21:58:39;5.98;63.18
67005;HTU21D;53920;51.094;5.902;2023-03-03T22:01:06;5.98;63.09
67005;HTU21D;53920;51.094;5.902;2023-03-03T22:03:32;5.99;63.28
67005;HTU21D;53920;51.094;5.902;2023-03-03T22:05:59;5.98;63.43
67005;HTU21D;53920;51.094;5.902;2023-03-03T22:08:27;5.91;63.63
67005;HTU21D;53920;51.094;5.902;2023-03-03T22:10:54;5.91;63.73
67005;HTU21D;53920;51.094;5.902;2023-03-03T22:13:26;5.89;63.75
67005;HTU21D;53920;51.094;5.902;2023-03-03T22:15:53;5.92;63.75
67005;HTU21D;53920;51.094;5.902;2023-03-03T22:18:19;5.90;63.91
67005;HTU21D;53920;51.094;5.902;2023-03-03T22:20:47;5.87;64.11
67005;HTU21D;53920;51.094;5.902;2023-03-03T22:23:15;5.91;64.23
67005;HTU21D;53920;51.094;5.902;2023-03-03T22:25:41;5.90;64.23
67005;HTU21D;53920;51.094;5.902;2023-03-03T22:28:08;5.85;64.30
67005;HTU21D;53920;51.094;5.902;2023-03-03T22:30:33;5.87;64.46
67005;HTU21D;53920;51.094;5.902;2023-03-03T22:32:59;5.85;64.43
67005;HTU21D;53920;51.094;5.902;2023-03-03T22:35:25;5.79;64.50
67005;HTU21D;53920;51.094;5.902;2023-03-03T22:37:51;5.75;64.67
67005;HTU21D;53920;51.094;5.902;2023-03-03T22:40:17;5.77;64.72
67005;HTU21D;53920;51.094;5.902;2023-03-03T22:42:43;5.78;64.72
67005;HTU21D;53920;51.094;5.902;2023-03-03T22:45:09;5.78;64.60
67005;HTU21D;53920;51.094;5.902;2023-03-03T22:47:36;5.79;64.64
67005;HTU21D;53920;51.094;5.902;2023-03-03T22:50:02;5.81;64.69
67005;HTU21D;53920;51.094;5.902;2023-03-03T22:52:28;5.78;64.82
67005;HTU21D;53920;51.094;5.902;2023-03-03T22:54:54;5.76;64.92
67005;HTU21D;53920;51.094;5.902;2023-03-03T22:57:22;5.75;64.92
67005;HTU21D;53920;51.094;5.902;2023-03-03T22:59:48;5.78;64.87
67005;HTU21D;53920;51.094;5.902;2023-03-03T23:02:14;5.82;64.87
67005;HTU21D;53920;51.094;5.902;2023-03-03T23:04:39;5.86;64.68
67005;HTU21D;53920;51.094;5.902;2023-03-03T23:07:06;5.81;64.71
67005;HTU21D;53920;51.094;5.902;2023-03-03T23:09:32;5.84;64.69
67005;HTU21D;53920;51.094;5.902;2023-03-03T23:11:57;5.89;64.60